Time;durP1;ratioP1;P1;durP2;ratioP2;P2;SDS_P1;SDS_P2;PMS_P1;PMS_P2;Temp;Humidity;BMP_temperature;BMP_pressure;BME280_temperature;BME280_humidity;BME280_pressure;Samples;Min_cycle;Max_cycle;Signal;HPM_P1;HPM_P2
2022/02/03 00:00:07;;;;;;;;;;;21.30;99.90;;;;;;5073417;28;20375;-78
2022/02/03 00:02:43;;;;;;;;;;;21.40;99.90;;;;;;5074118;28;20425;-76
2022/02/03 00:05:21;;;;;;;;;;;21.50;99.90;;;;;;5074101;28;19919;-76
2022/02/03 00:08:06;;;;;;;;;;;21.40;99.90;;;;;;5073814;28;20042;-75
2022/02/03 00:11:14;;;;;;;;;;;21.40;99.90;;;;;;5074092;28;19908;-76
2022/02/03 00:17:00;;;;;;;;;;;21.70;99.90;;;;;;5074012;28;20270;-75
2022/02/03 00:22:23;;;;;;;;;;;21.70;99.90;;;;;;5073219;28;19927;-75
2022/02/03 00:27:52;;;;;;;;;;;21.70;99.90;;;;;;5073361;28;19908;-75
2022/02/03 00:30:20;;;;;;;;;;;21.70;99.90;;;;;;5106316;28;19915;-76
2022/02/03 00:33:11;;;;;;;;;;;21.70;99.90;;;;;;5073251;28;19909;-77
2022/02/03 00:35:54;;;;;;;;;;;21.80;99.90;;;;;;5105947;28;19948;-75
2022/02/03 00:49:08;;;;;;;;;;;21.60;99.90;;;;;;5073640;28;20034;-75
2022/02/03 00:51:35;;;;;;;;;;;21.90;99.90;;;;;;5073354;28;20338;-76
2022/02/03 00:54:07;;;;;;;;;;;22.10;99.90;;;;;;5072676;28;20007;-77
2022/02/03 00:56:35;;;;;;;;;;;22.20;99.90;;;;;;5072690;28;19908;-74
2022/02/03 00:59:02;;;;;;;;;;;22.20;99.90;;;;;;5071797;28;19977;-74
2022/02/03 01:01:33;;;;;;;;;;;22.10;99.90;;;;;;5072571;28;19912;-75
2022/02/03 01:04:17;;;;;;;;;;;22.40;99.90;;;;;;5073306;28;19961;-76
2022/02/03 01:06:52;;;;;;;;;;;22.50;99.90;;;;;;5072559;28;19916;-79
2022/02/03 01:09:26;;;;;;;;;;;22.60;99.90;;;;;;5072768;28;19945;-76
2022/02/03 01:12:15;;;;;;;;;;;22.90;99.90;;;;;;5072388;28;20395;-76
2022/02/03 01:14:55;;;;;;;;;;;23.10;99.90;;;;;;5072659;28;19909;-76
2022/02/03 01:45:08;;;;;;;;;;;23.20;99.90;;;;;;5072465;28;19962;-76
2022/02/03 01:52:41;;;;;;;;;;;23.60;99.90;;;;;;5071979;28;19913;-77
2022/02/03 01:55:13;;;;;;;;;;;23.10;99.90;;;;;;5072190;28;19912;-78
2022/02/03 01:57:49;;;;;;;;;;;23.20;99.90;;;;;;5072198;28;20340;-78
2022/02/03 02:00:16;;;;;;;;;;;23.20;99.90;;;;;;5071904;28;20228;-79
2022/02/03 02:03:06;;;;;;;;;;;23.10;99.90;;;;;;5071687;28;19920;-78
2022/02/03 02:05:33;;;;;;;;;;;22.90;99.90;;;;;;5068725;28;20038;-77
2022/02/03 02:08:12;;;;;;;;;;;22.70;99.90;;;;;;5071976;28;19909;-78
2022/02/03 02:11:20;;;;;;;;;;;22.60;99.90;;;;;;5073061;28;19916;-78
2022/02/03 02:43:50;;;;;;;;;;;22.80;99.90;;;;;;5075612;28;20359;-77
2022/02/03 02:46:17;;;;;;;;;;;22.80;99.90;;;;;;5076395;28;19915;-77
2022/02/03 02:48:49;;;;;;;;;;;22.90;99.90;;;;;;5075242;28;20002;-77
2022/02/03 02:51:24;;;;;;;;;;;22.80;99.90;;;;;;5074973;28;19908;-76
2022/02/03 02:54:18;;;;;;;;;;;22.80;99.90;;;;;;5074813;28;19978;-76
2022/02/03 03:37:44;;;;;;;;;;;22.20;99.90;;;;;;5074264;28;20355;-75
2022/02/03 03:40:06;;;;;;;;;;;22.30;99.90;;;;;;5073174;28;20751;-75
2022/02/03 03:42:38;;;;;;;;;;;22.30;99.90;;;;;;5073878;28;20023;-75
2022/02/03 03:45:06;;;;;;;;;;;22.20;99.90;;;;;;5073788;28;19916;-75
2022/02/03 03:47:34;;;;;;;;;;;22.10;99.90;;;;;;5073866;28;20351;-75
2022/02/03 03:50:10;;;;;;;;;;;22.00;99.90;;;;;;5073513;28;20370;-75
2022/02/03 03:52:44;;;;;;;;;;;21.90;99.90;;;;;;5073927;28;19915;-74
2022/02/03 04:37:55;;;;;;;;;;;21.70;99.90;;;;;;5073061;28;19908;-74
2022/02/03 04:54:34;;;;;;;;;;;21.50;99.90;;;;;;5072566;28;19919;-75
2022/02/03 04:57:21;;;;;;;;;;;21.50;99.90;;;;;;5072792;28;19919;-76
2022/02/03 05:03:03;;;;;;;;;;;21.30;99.90;;;;;;5072443;28;19921;-76
2022/02/03 05:43:37;;;;;;;;;;;21.30;99.90;;;;;;5072173;28;20317;-75
2022/02/03 05:49:15;;;;;;;;;;;21.20;99.90;;;;;;5076166;28;19934;-75
2022/02/03 05:52:19;;;;;;;;;;;21.10;99.90;;;;;;5074282;28;19913;-75
2022/02/03 06:05:45;;;;;;;;;;;21.20;99.90;;;;;;5073507;28;20374;-74
2022/02/03 06:21:40;;;;;;;;;;;21.60;99.90;;;;;;5073241;28;19923;-75
2022/02/03 06:24:16;;;;;;;;;;;21.50;99.90;;;;;;5072952;28;19917;-75
2022/02/03 06:29:31;;;;;;;;;;;21.50;99.90;;;;;;5073163;28;19915;-75
2022/02/03 06:31:58;;;;;;;;;;;21.50;99.90;;;;;;5072626;28;19909;-74
2022/02/03 06:34:25;;;;;;;;;;;21.30;99.90;;;;;;5072862;28;19954;-75
2022/02/03 06:36:52;;;;;;;;;;;21.30;99.90;;;;;;5073137;28;19909;-74
2022/02/03 06:39:23;;;;;;;;;;;21.30;99.90;;;;;;5073248;28;20003;-74
2022/02/03 06:41:54;;;;;;;;;;;21.30;99.90;;;;;;5072844;28;19931;-75
2022/02/03 06:44:26;;;;;;;;;;;21.30;99.90;;;;;;5072979;28;19916;-75
2022/02/03 06:46:56;;;;;;;;;;;21.40;99.90;;;;;;5073136;28;19944;-75
2022/02/03 06:49:38;;;;;;;;;;;21.30;99.90;;;;;;5072878;28;19990;-74
2022/02/03 06:52:12;;;;;;;;;;;21.20;99.90;;;;;;5092242;28;20003;-75
2022/02/03 06:55:00;;;;;;;;;;;21.20;99.90;;;;;;5092981;28;20010;-75
2022/02/03 06:57:35;;;;;;;;;;;21.20;99.90;;;;;;5091123;28;19908;-74
2022/02/03 07:00:07;;;;;;;;;;;21.10;99.90;;;;;;5092447;28;19928;-75
2022/02/03 07:02:39;;;;;;;;;;;21.20;99.90;;;;;;5092365;28;19973;-74
2022/02/03 07:05:06;;;;;;;;;;;21.20;99.90;;;;;;5092868;28;19946;-75
2022/02/03 07:07:38;;;;;;;;;;;21.30;99.90;;;;;;5092692;28;19912;-74
2022/02/03 07:10:06;;;;;;;;;;;21.50;99.90;;;;;;5092687;28;19950;-74
2022/02/03 07:12:33;;;;;;;;;;;21.60;99.90;;;;;;5092056;28;20428;-74
2022/02/03 07:15:01;;;;;;;;;;;21.50;99.90;;;;;;5092471;28;20367;-74
2022/02/03 07:17:28;;;;;;;;;;;21.30;99.90;;;;;;5092218;28;19961;-74
2022/02/03 07:20:00;;;;;;;;;;;21.20;99.90;;;;;;5092354;28;19912;-73
2022/02/03 07:22:27;;;;;;;;;;;21.10;99.90;;;;;;5092567;28;19927;-75
2022/02/03 07:24:54;;;;;;;;;;;21.20;99.90;;;;;;5092613;28;19908;-74
2022/02/03 07:27:21;;;;;;;;;;;21.20;99.90;;;;;;5091934;28;19998;-73
2022/02/03 07:29:48;;;;;;;;;;;20.70;99.90;;;;;;5091807;28;19908;-74
2022/02/03 07:32:15;;;;;;;;;;;19.80;99.90;;;;;;5092232;28;19912;-73
2022/02/03 07:34:41;;;;;;;;;;;19.50;99.90;;;;;;5092122;28;20025;-74
2022/02/03 07:37:08;;;;;;;;;;;19.40;99.90;;;;;;5092261;28;20287;-74
2022/02/03 07:39:36;;;;;;;;;;;19.40;99.90;;;;;;5092218;28;20551;-75
2022/02/03 07:42:03;;;;;;;;;;;19.40;99.90;;;;;;5091172;28;19916;-75
2022/02/03 07:44:30;;;;;;;;;;;19.40;99.90;;;;;;5092012;28;20393;-74
2022/02/03 07:46:56;;;;;;;;;;;19.40;99.90;;;;;;5091748;28;19953;-74
2022/02/03 07:49:23;;;;;;;;;;;19.60;99.90;;;;;;5091992;28;19915;-74
2022/02/03 07:51:50;;;;;;;;;;;19.70;99.90;;;;;;5091727;28;20290;-76
2022/02/03 07:54:16;;;;;;;;;;;19.80;99.90;;;;;;5091918;28;20362;-74
2022/02/03 07:56:43;;;;;;;;;;;19.90;99.90;;;;;;5091464;28;19973;-74
2022/02/03 07:59:10;;;;;;;;;;;20.00;99.90;;;;;;5091510;28;19924;-74
2022/02/03 08:04:45;;;;;;;;;;;20.10;99.90;;;;;;5091712;28;19923;-75
2022/02/03 08:07:15;;;;;;;;;;;20.20;99.90;;;;;;5093709;28;19908;-74
2022/02/03 08:12:13;;;;;;;;;;;20.20;99.90;;;;;;5093411;28;19916;-74
2022/02/03 08:14:46;;;;;;;;;;;20.20;99.90;;;;;;5093367;28;19912;-74
2022/02/03 08:17:20;;;;;;;;;;;19.70;99.90;;;;;;5093444;28;19930;-74
2022/02/03 08:19:59;;;;;;;;;;;19.40;99.90;;;;;;5093443;28;19908;-76
2022/02/03 08:22:28;;;;;;;;;;;18.90;99.90;;;;;;5093454;28;19920;-75
2022/02/03 08:25:11;;;;;;;;;;;18.80;99.90;;;;;;5093170;28;19915;-76
2022/02/03 08:27:56;;;;;;;;;;;18.60;99.90;;;;;;5093637;28;19915;-76
2022/02/03 08:30:31;;;;;;;;;;;;;;;;;;;;;
2022/02/03 08:32:54;;;;;;;;;;;18.30;99.90;;;;;;5093759;28;19908;-78
2022/02/03 08:35:33;;;;;;;;;;;18.20;99.90;;;;;;5093407;28;19908;-77
2022/02/03 08:38:12;;;;;;;;;;;18.20;99.90;;;;;;5092965;28;20351;-78
2022/02/03 08:40:59;;;;;;;;;;;18.10;99.90;;;;;;5093323;28;19915;-78
2022/02/03 08:43:28;;;;;;;;;;;18.10;99.90;;;;;;5092854;28;19920;-78
2022/02/03 08:45:55;;;;;;;;;;;18.20;99.90;;;;;;5092824;28;20006;-77
2022/02/03 08:48:22;;;;;;;;;;;18.20;99.90;;;;;;5092921;28;19908;-78
2022/02/03 08:50:48;;;;;;;;;;;18.20;99.90;;;;;;5092901;28;20372;-77
2022/02/03 08:53:22;;;;;;;;;;;18.30;99.90;;;;;;5093066;28;20072;-77
2022/02/03 08:56:06;;;;;;;;;;;18.20;99.90;;;;;;5092654;28;20350;-78
2022/02/03 09:59:06;;;;;;;;;;;19.20;99.90;;;;;;5068539;28;20440;-77
2022/02/03 10:01:43;;;;;;;;;;;19.20;99.90;;;;;;5091957;28;19917;-77
2022/02/03 10:04:14;;;;;;;;;;;19.30;99.90;;;;;;5091796;28;20378;-77
2022/02/03 10:06:59;;;;;;;;;;;19.40;99.90;;;;;;5091744;28;19912;-77
2022/02/03 10:09:36;;;;;;;;;;;19.50;99.90;;;;;;5092337;28;20393;-77
2022/02/03 10:12:02;;;;;;;;;;;19.40;99.90;;;;;;5091966;28;19908;-76
2022/02/03 10:14:34;;;;;;;;;;;19.40;99.90;;;;;;5091854;28;19916;-77
2022/02/03 10:17:02;;;;;;;;;;;19.50;99.90;;;;;;5091996;28;20294;-78
2022/02/03 10:19:35;;;;;;;;;;;19.50;99.90;;;;;;5091613;28;19915;-77
2022/02/03 10:22:02;;;;;;;;;;;19.50;99.90;;;;;;5090384;28;20440;-78
2022/02/03 10:24:36;;;;;;;;;;;19.50;99.90;;;;;;5091879;28;19961;-77
2022/02/03 10:27:03;;;;;;;;;;;19.50;99.90;;;;;;5091898;28;19916;-77
2022/02/03 10:29:40;;;;;;;;;;;19.50;99.90;;;;;;5091914;28;19909;-75
2022/02/03 10:32:09;;;;;;;;;;;19.60;99.90;;;;;;5093937;28;19983;-77
2022/02/03 10:34:43;;;;;;;;;;;19.60;99.90;;;;;;5095045;28;19915;-77
2022/02/03 10:37:40;;;;;;;;;;;19.60;99.90;;;;;;5095479;28;19915;-78
2022/02/03 10:50:47;;;;;;;;;;;19.50;99.90;;;;;;5096386;28;20004;-76
2022/02/03 11:06:55;;;;;;;;;;;19.70;99.90;;;;;;5097363;28;19994;-76
2022/02/03 11:12:17;;;;;;;;;;;19.70;99.90;;;;;;5111313;27;19908;-76
2022/02/03 11:14:44;;;;;;;;;;;19.80;99.90;;;;;;5095741;28;19908;-76
2022/02/03 11:17:12;;;;;;;;;;;19.70;99.90;;;;;;5096222;28;19912;-76
2022/02/03 11:19:40;;;;;;;;;;;19.60;99.90;;;;;;5095190;28;20003;-76
2022/02/03 11:22:10;;;;;;;;;;;19.60;99.90;;;;;;5095153;28;19920;-76
2022/02/03 11:24:42;;;;;;;;;;;19.50;99.90;;;;;;5097481;28;19954;-76
2022/02/03 11:33:13;;;;;;;;;;;19.20;99.90;;;;;;5096569;28;20005;-76
2022/02/03 11:38:03;;;;;;;;;;;19.20;99.90;;;;;;5097333;28;19951;-76
2022/02/03 11:40:47;;;;;;;;;;;19.30;99.90;;;;;;5096752;28;19914;-76
2022/02/03 11:44:03;;;;;;;;;;;19.30;99.90;;;;;;5096686;28;19916;-77
2022/02/03 12:10:38;;;;;;;;;;;19.60;99.90;;;;;;5096260;28;20405;-76
2022/02/03 12:19:01;;;;;;;;;;;19.50;99.90;;;;;;5095261;28;20022;-78
2022/02/03 12:21:35;;;;;;;;;;;19.50;99.90;;;;;;5093613;28;20363;-77
2022/02/03 12:29:42;;;;;;;;;;;19.50;99.90;;;;;;5094633;28;20006;-77
2022/02/03 12:32:28;;;;;;;;;;;19.50;99.90;;;;;;5093506;28;19909;-77
2022/02/03 12:38:21;;;;;;;;;;;19.50;99.90;;;;;;5094718;28;20274;-76
2022/02/03 12:43:12;;;;;;;;;;;19.50;99.90;;;;;;5093424;28;19938;-76
2022/02/03 12:45:39;;;;;;;;;;;19.50;99.90;;;;;;5093336;28;20321;-76
2022/02/03 12:48:12;;;;;;;;;;;19.50;99.90;;;;;;5094479;28;19912;-76
2022/02/03 12:50:41;;;;;;;;;;;19.50;99.90;;;;;;5093344;28;19908;-77
2022/02/03 12:53:08;;;;;;;;;;;19.50;99.90;;;;;;5095228;28;19908;-76
2022/02/03 12:55:37;;;;;;;;;;;19.50;99.90;;;;;;5094462;28;20007;-75
2022/02/03 12:58:13;;;;;;;;;;;19.60;99.90;;;;;;5093072;28;19908;-76
2022/02/03 13:00:51;;;;;;;;;;;19.50;99.90;;;;;;5093166;28;19912;-76
2022/02/03 13:03:19;;;;;;;;;;;19.50;99.90;;;;;;5092981;28;19927;-76
2022/02/03 13:05:53;;;;;;;;;;;19.50;99.90;;;;;;5092687;28;19916;-75
2022/02/03 13:08:30;;;;;;;;;;;19.40;99.90;;;;;;5092895;28;20270;-75
2022/02/03 13:11:18;;;;;;;;;;;19.30;99.90;;;;;;5092949;28;20398;-76
2022/02/03 13:16:43;;;;;;;;;;;19.40;99.90;;;;;;5083989;28;19952;-75
2022/02/03 13:19:18;;;;;;;;;;;19.40;99.90;;;;;;5092822;28;19961;-76
2022/02/03 13:22:00;;;;;;;;;;;19.30;99.90;;;;;;5092768;28;19916;-75
2022/02/03 13:27:01;;;;;;;;;;;19.10;99.90;;;;;;5092574;28;19908;-76
2022/02/03 13:29:47;;;;;;;;;;;19.00;99.90;;;;;;5092850;28;20020;-75
2022/02/03 13:32:21;;;;;;;;;;;19.00;99.90;;;;;;5092660;28;19912;-75
2022/02/03 13:34:57;;;;;;;;;;;18.90;99.90;;;;;;5092556;28;20354;-76
2022/02/03 13:37:40;;;;;;;;;;;18.80;99.90;;;;;;5092482;28;19909;-76
2022/02/03 13:40:10;;;;;;;;;;;18.80;99.90;;;;;;5092359;28;19908;-76
2022/02/03 13:42:43;;;;;;;;;;;18.80;99.90;;;;;;5092278;28;20282;-75
2022/02/03 13:45:10;;;;;;;;;;;18.80;99.90;;;;;;5092524;28;19912;-76
2022/02/03 13:47:37;;;;;;;;;;;18.80;99.90;;;;;;5092307;28;19931;-74
2022/02/03 13:50:06;;;;;;;;;;;18.80;99.90;;;;;;5092340;28;19908;-76
2022/02/03 13:52:41;;;;;;;;;;;18.80;99.90;;;;;;5092392;28;19959;-75
2022/02/03 14:20:40;;;;;;;;;;;17.90;99.90;;;;;;5096069;28;19955;-76
2022/02/03 14:28:19;;;;;;;;;;;17.90;99.90;;;;;;5095819;28;19953;-76
2022/02/03 14:30:49;;;;;;;;;;;17.90;99.90;;;;;;5095793;28;19916;-75
2022/02/03 14:33:21;;;;;;;;;;;17.90;99.90;;;;;;5095688;28;19908;-75
2022/02/03 14:35:48;;;;;;;;;;;17.90;99.90;;;;;;5095569;28;19962;-76
2022/02/03 14:38:20;;;;;;;;;;;17.90;99.90;;;;;;5095626;28;19914;-75
2022/02/03 14:41:13;;;;;;;;;;;17.80;99.90;;;;;;5095644;28;19908;-75
2022/02/03 14:43:40;;;;;;;;;;;17.80;99.90;;;;;;5095710;28;19951;-75
2022/02/03 14:46:12;;;;;;;;;;;17.70;99.90;;;;;;5095584;28;19947;-76
2022/02/03 14:48:41;;;;;;;;;;;17.80;99.90;;;;;;5094375;28;19915;-76
2022/02/03 14:51:08;;;;;;;;;;;17.70;99.90;;;;;;5095452;28;19912;-75
2022/02/03 14:53:55;;;;;;;;;;;17.70;99.90;;;;;;5095352;28;19908;-75
2022/02/03 14:59:07;;;;;;;;;;;17.70;99.90;;;;;;5095393;28;19927;-76
2022/02/03 15:01:34;;;;;;;;;;;17.70;99.90;;;;;;5095049;28;19919;-74
2022/02/03 15:04:02;;;;;;;;;;;17.70;99.90;;;;;;5094991;28;19920;-76
2022/02/03 15:06:37;;;;;;;;;;;17.60;99.90;;;;;;5095061;28;19973;-75
2022/02/03 15:09:44;;;;;;;;;;;17.70;99.90;;;;;;5094999;28;19964;-75
2022/02/03 15:12:22;;;;;;;;;;;17.60;99.90;;;;;;5094557;28;19916;-75
2022/02/03 15:14:48;;;;;;;;;;;17.60;99.90;;;;;;5095025;28;20036;-75
2022/02/03 15:17:15;;;;;;;;;;;17.70;99.90;;;;;;5094567;28;20546;-74
2022/02/03 15:19:42;;;;;;;;;;;17.70;99.90;;;;;;5093976;28;20019;-73
2022/02/03 15:22:08;;;;;;;;;;;17.70;99.90;;;;;;5094524;28;20017;-74
2022/02/03 15:24:35;;;;;;;;;;;17.70;99.90;;;;;;5094670;28;20378;-75
2022/02/03 15:27:02;;;;;;;;;;;17.70;99.90;;;;;;5094558;28;19908;-75
2022/02/03 15:29:29;;;;;;;;;;;17.70;99.90;;;;;;5094705;28;19908;-74
2022/02/03 15:31:56;;;;;;;;;;;17.70;99.90;;;;;;5094415;28;19912;-74
2022/02/03 15:34:23;;;;;;;;;;;17.80;99.90;;;;;;5094771;28;20270;-74
2022/02/03 15:36:53;;;;;;;;;;;17.80;99.90;;;;;;5094859;28;19908;-74
2022/02/03 15:39:24;;;;;;;;;;;17.80;99.90;;;;;;5094581;28;19914;-74
2022/02/03 15:41:53;;;;;;;;;;;17.90;99.90;;;;;;5094115;28;20263;-75
2022/02/03 15:44:21;;;;;;;;;;;17.90;99.90;;;;;;5094262;28;19943;-73
2022/02/03 15:47:01;;;;;;;;;;;17.90;99.90;;;;;;5094331;28;19915;-74
2022/02/03 15:58:30;;;;;;;;;;;17.80;99.90;;;;;;5095179;28;19915;-75
2022/02/03 16:03:13;;;;;;;;;;;17.80;99.90;;;;;;5094015;28;20286;-76
2022/02/03 16:13:19;;;;;;;;;;;17.80;99.90;;;;;;5094110;28;19908;-75
2022/02/03 16:15:07;;;;;;;;;;;17.80;99.90;;;;;;5094039;28;19988;-75
2022/02/03 16:17:08;;;;;;;;;;;17.70;99.90;;;;;;5093867;28;19915;-75
2022/02/03 16:19:58;;;;;;;;;;;17.80;99.90;;;;;;5093989;28;19908;-75
2022/02/03 16:25:07;;;;;;;;;;;17.80;99.90;;;;;;5093654;28;19961;-74
2022/02/03 16:52:24;;;;;;;;;;;16.10;99.90;;;;;;5093545;28;20021;-78
2022/02/03 16:54:52;;;;;;;;;;;16.00;99.90;;;;;;5093574;28;19912;-78
2022/02/03 16:57:23;;;;;;;;;;;16.10;99.90;;;;;;5092854;28;19915;-78
2022/02/03 17:00:08;;;;;;;;;;;16.00;99.90;;;;;;5092725;28;19920;-78
2022/02/03 17:02:35;;;;;;;;;;;16.00;99.90;;;;;;5095283;28;19921;-78
2022/02/03 17:05:02;;;;;;;;;;;15.90;99.90;;;;;;5099121;28;19953;-78
2022/02/03 17:07:29;;;;;;;;;;;15.90;99.90;;;;;;5094750;28;19914;-78
2022/02/03 17:09:56;;;;;;;;;;;15.90;99.90;;;;;;5092811;28;19908;-77
2022/02/03 17:12:23;;;;;;;;;;;15.80;99.90;;;;;;5092774;28;20008;-77
2022/02/03 17:14:50;;;;;;;;;;;15.70;99.90;;;;;;5092806;28;20331;-77
2022/02/03 17:17:19;;;;;;;;;;;15.70;99.90;;;;;;5093036;28;19908;-77
2022/02/03 17:19:46;;;;;;;;;;;15.70;99.90;;;;;;5092936;28;19954;-78
2022/02/03 17:22:14;;;;;;;;;;;15.80;99.90;;;;;;5092741;28;19927;-78
2022/02/03 17:24:48;;;;;;;;;;;15.80;99.90;;;;;;5094618;28;20553;-77
2022/02/03 17:30:04;;;;;;;;;;;16.00;99.90;;;;;;5092698;28;19912;-77
2022/02/03 18:09:56;;;;;;;;;;;15.80;99.90;;;;;;5096166;28;20266;-76
2022/02/03 18:18:44;;;;;;;;;;;15.90;99.90;;;;;;5096014;28;19930;-75
2022/02/03 18:27:25;;;;;;;;;;;16.10;99.90;;;;;;5095866;28;19953;-75
2022/02/03 18:53:22;;;;;;;;;;;16.20;99.90;;;;;;5073755;28;19912;-75
2022/02/03 18:56:01;;;;;;;;;;;16.20;99.90;;;;;;5094941;28;20003;-75
2022/02/03 19:23:39;;;;;;;;;;;16.10;99.90;;;;;;5094994;28;19923;-75
2022/02/03 19:26:15;;;;;;;;;;;16.20;99.90;;;;;;5094388;28;20227;-74
2022/02/03 20:00:26;;;;;;;;;;;16.00;99.90;;;;;;5094074;28;19942;-76
2022/02/03 20:02:15;;;;;;;;;;;16.00;99.90;;;;;;5093810;28;19974;-77
2022/02/03 20:07:33;;;;;;;;;;;16.10;99.90;;;;;;5094309;28;20002;-78
2022/02/03 20:12:47;;;;;;;;;;;16.20;99.90;;;;;;5091808;28;19944;-75
2022/02/03 20:15:18;;;;;;;;;;;16.30;99.90;;;;;;5094223;28;19919;-76
2022/02/03 20:17:45;;;;;;;;;;;16.30;99.90;;;;;;5094026;28;19908;-75
2022/02/03 20:20:12;;;;;;;;;;;16.30;99.90;;;;;;5093734;28;19912;-74
2022/02/03 20:22:39;;;;;;;;;;;16.30;99.90;;;;;;5093803;28;20014;-75
2022/02/03 20:25:10;;;;;;;;;;;16.20;99.90;;;;;;5093795;28;20319;-76
2022/02/03 20:27:37;;;;;;;;;;;16.30;99.90;;;;;;5092754;28;20917;-76
2022/02/03 20:30:06;;;;;;;;;;;16.30;99.90;;;;;;5093474;28;19953;-76
2022/02/03 20:32:33;;;;;;;;;;;16.30;99.90;;;;;;5094321;28;19908;-75
2022/02/03 20:35:00;;;;;;;;;;;16.30;99.90;;;;;;5093853;28;19915;-76
2022/02/03 20:37:27;;;;;;;;;;;16.40;99.90;;;;;;5093661;28;20347;-77
2022/02/03 20:39:56;;;;;;;;;;;16.60;99.90;;;;;;5093069;28;20006;-77
2022/02/03 20:42:23;;;;;;;;;;;16.70;99.90;;;;;;5091831;28;19957;-78
2022/02/03 20:44:50;;;;;;;;;;;16.80;99.90;;;;;;5093723;28;19908;-76
2022/02/03 20:47:17;;;;;;;;;;;16.80;99.90;;;;;;5093858;28;19919;-77
2022/02/03 20:49:43;;;;;;;;;;;16.80;99.90;;;;;;5093685;28;20278;-77
2022/02/03 20:52:10;;;;;;;;;;;16.90;99.90;;;;;;5093009;28;19915;-78
2022/02/03 20:54:37;;;;;;;;;;;16.90;99.90;;;;;;5092590;28;19919;-77
2022/02/03 20:57:04;;;;;;;;;;;16.90;99.90;;;;;;5092968;28;19915;-78
2022/02/03 20:59:52;;;;;;;;;;;17.00;99.90;;;;;;5092890;28;20431;-77
2022/02/03 21:02:28;;;;;;;;;;;17.00;99.90;;;;;;5092455;28;19958;-77
2022/02/03 21:05:05;;;;;;;;;;;17.10;99.90;;;;;;5092884;28;20260;-77
2022/02/03 21:07:35;;;;;;;;;;;17.10;99.90;;;;;;5092947;28;19908;-76
2022/02/03 21:10:05;;;;;;;;;;;17.20;99.90;;;;;;5092245;28;19912;-77
2022/02/03 21:12:32;;;;;;;;;;;17.20;99.90;;;;;;5092743;28;19908;-76
2022/02/03 21:14:59;;;;;;;;;;;17.20;99.90;;;;;;5092692;28;20439;-76
2022/02/03 21:17:29;;;;;;;;;;;17.30;99.90;;;;;;5091732;28;19912;-77
2022/02/03 21:20:04;;;;;;;;;;;17.40;99.90;;;;;;5092688;28;19969;-78
2022/02/03 21:22:31;;;;;;;;;;;17.20;99.90;;;;;;5092684;28;19966;-79
2022/02/03 21:25:03;;;;;;;;;;;17.10;99.90;;;;;;5092915;28;20415;-78
2022/02/03 21:27:32;;;;;;;;;;;17.10;99.90;;;;;;5093720;28;19908;-79
2022/02/03 21:30:06;;;;;;;;;;;17.00;99.90;;;;;;5092697;28;19916;-79
2022/02/03 21:32:32;;;;;;;;;;;16.80;99.90;;;;;;5093929;28;19908;-79
2022/02/03 21:34:59;;;;;;;;;;;16.70;99.90;;;;;;5094643;28;19908;-81
2022/02/03 21:37:26;;;;;;;;;;;16.60;99.90;;;;;;5094138;28;19995;-79
2022/02/03 21:39:54;;;;;;;;;;;16.60;99.90;;;;;;5094325;28;19916;-80
2022/02/03 21:42:22;;;;;;;;;;;16.60;99.90;;;;;;5092043;28;19921;-79
2022/02/03 21:44:48;;;;;;;;;;;16.50;99.90;;;;;;5092684;28;19908;-79
2022/02/03 21:47:15;;;;;;;;;;;16.50;99.90;;;;;;5092638;28;20394;-80
2022/02/03 21:49:42;;;;;;;;;;;16.60;99.90;;;;;;5091125;28;19908;-80
2022/02/03 21:52:14;;;;;;;;;;;16.60;99.90;;;;;;5091064;28;20384;-79
2022/02/03 21:54:41;;;;;;;;;;;16.60;99.90;;;;;;5092585;28;20093;-79
2022/02/03 21:57:09;;;;;;;;;;;16.70;99.90;;;;;;5092418;28;19909;-79
2022/02/03 21:59:36;;;;;;;;;;;16.80;99.90;;;;;;5092266;28;19924;-80
2022/02/03 22:02:05;;;;;;;;;;;16.90;99.90;;;;;;5092215;28;19966;-80
2022/02/03 22:04:32;;;;;;;;;;;16.90;99.90;;;;;;5093097;28;19908;-79
2022/02/03 22:06:59;;;;;;;;;;;17.00;99.90;;;;;;5092271;28;19908;-79
2022/02/03 22:09:26;;;;;;;;;;;17.00;99.90;;;;;;5092014;28;19951;-79
2022/02/03 22:11:52;;;;;;;;;;;17.10;99.90;;;;;;5091824;28;19916;-80
2022/02/03 22:14:19;;;;;;;;;;;17.10;99.90;;;;;;5092238;28;19908;-79
2022/02/03 22:16:48;;;;;;;;;;;17.20;99.90;;;;;;5092215;28;20355;-80
2022/02/03 22:19:14;;;;;;;;;;;17.20;99.90;;;;;;5092299;28;19913;-80
2022/02/03 22:21:49;;;;;;;;;;;17.30;99.90;;;;;;5092275;28;19912;-80
2022/02/03 22:24:28;;;;;;;;;;;17.30;99.90;;;;;;5094851;28;19912;-79
2022/02/03 22:38:40;;;;;;;;;;;17.60;99.90;;;;;;5096050;28;19915;-79
2022/02/03 22:49:04;;;;;;;;;;;17.90;99.90;;;;;;5097299;28;19908;-78
2022/02/03 22:51:34;;;;;;;;;;;18.10;99.90;;;;;;5096254;28;19912;-79
2022/02/03 22:54:01;;;;;;;;;;;18.30;99.90;;;;;;5095600;28;19908;-79
2022/02/03 22:56:27;;;;;;;;;;;18.50;99.90;;;;;;5095291;28;20405;-78
2022/02/03 23:01:23;;;;;;;;;;;18.40;99.90;;;;;;5094995;28;19913;-78
2022/02/03 23:03:49;;;;;;;;;;;18.40;99.90;;;;;;5094876;28;20359;-79
2022/02/03 23:06:16;;;;;;;;;;;18.20;99.90;;;;;;5095372;28;19998;-78
2022/02/03 23:19:29;;;;;;;;;;;17.90;99.90;;;;;;5094976;28;19954;-77
2022/02/03 23:22:10;;;;;;;;;;;17.90;99.90;;;;;;5094570;28;19916;-78
2022/02/03 23:24:37;;;;;;;;;;;17.80;99.90;;;;;;5094971;28;19961;-78
2022/02/03 23:27:30;;;;;;;;;;;17.80;99.90;;;;;;5094779;28;20316;-78
2022/02/03 23:29:52;;;;;;;;;;;17.80;99.90;;;;;;5094424;28;19912;-79
2022/02/03 23:32:22;;;;;;;;;;;17.70;99.90;;;;;;5094713;28;19958;-79
2022/02/03 23:34:59;;;;;;;;;;;17.70;99.90;;;;;;5093606;28;19952;-77
2022/02/03 23:37:26;;;;;;;;;;;17.70;99.90;;;;;;5094538;28;20252;-77
2022/02/03 23:40:03;;;;;;;;;;;17.90;99.90;;;;;;5093069;28;19950;-77
